sensor_id;sensor_type;location;lat;lon;timestamp;P1;durP1;ratioP1;P2;durP2;ratioP2
16460;SDS011;8341;42.048;24.650;2023-10-13T05:15:09;4.35;;;3.45;;
16460;SDS011;8341;42.048;24.650;2023-10-13T05:17:54;5.10;;;3.88;;
16460;SDS011;8341;42.048;24.650;2023-10-13T05:20:39;4.70;;;4.05;;
16460;SDS011;8341;42.048;24.650;2023-10-13T05:23:42;4.95;;;4.03;;
16460;SDS011;8341;42.048;24.650;2023-10-13T05:26:29;6.47;;;3.80;;
16460;SDS011;8341;42.048;24.650;2023-10-13T05:29:13;4.13;;;3.55;;
16460;SDS011;8341;42.048;24.650;2023-10-13T05:31:59;6.38;;;3.83;;
16460;SDS011;8341;42.048;24.650;2023-10-13T05:34:43;4.10;;;3.38;;
16460;SDS011;8341;42.048;24.650;2023-10-13T05:37:28;6.50;;;4.10;;
16460;SDS011;8341;42.048;24.650;2023-10-13T05:40:12;5.88;;;4.72;;
16460;SDS011;8341;42.048;24.650;2023-10-13T05:42:57;6.38;;;4.03;;
16460;SDS011;8341;42.048;24.650;2023-10-13T05:45:41;5.85;;;3.50;;
16460;SDS011;8341;42.048;24.650;2023-10-13T05:48:29;5.18;;;3.70;;
16460;SDS011;8341;42.048;24.650;2023-10-13T05:51:20;4.05;;;3.58;;
16460;SDS011;8341;42.048;24.650;2023-10-13T05:54:09;4.25;;;3.65;;
16460;SDS011;8341;42.048;24.650;2023-10-13T05:56:54;4.78;;;3.28;;
16460;SDS011;8341;42.048;24.650;2023-10-13T05:59:38;5.95;;;3.47;;
16460;SDS011;8341;42.048;24.650;2023-10-13T06:02:22;5.93;;;3.95;;
16460;SDS011;8341;42.048;24.650;2023-10-13T06:05:12;4.93;;;4.40;;
16460;SDS011;8341;42.048;24.650;2023-10-13T06:07:57;6.60;;;3.53;;
16460;SDS011;8341;42.048;24.650;2023-10-13T06:10:42;7.85;;;4.30;;
16460;SDS011;8341;42.048;24.650;2023-10-13T06:13:28;8.30;;;4.22;;
16460;SDS011;8341;42.048;24.650;2023-10-13T06:16:13;4.63;;;3.78;;
16460;SDS011;8341;42.048;24.650;2023-10-13T06:25:27;8.90;;;4.80;;
16460;SDS011;8341;42.048;24.650;2023-10-13T06:28:11;8.77;;;5.15;;
16460;SDS011;8341;42.048;24.650;2023-10-13T06:42:58;6.75;;;4.10;;
16460;SDS011;8341;42.048;24.650;2023-10-13T06:45:44;5.53;;;4.68;;
16460;SDS011;8341;42.048;24.650;2023-10-13T06:48:22;6.78;;;4.22;;
16460;SDS011;8341;42.048;24.650;2023-10-13T06:50:52;6.38;;;4.22;;
16460;SDS011;8341;42.048;24.650;2023-10-13T06:53:42;8.07;;;4.47;;
16460;SDS011;8341;42.048;24.650;2023-10-13T07:03:22;6.22;;;4.03;;
16460;SDS011;8341;42.048;24.650;2023-10-13T07:05:50;6.18;;;4.32;;
16460;SDS011;8341;42.048;24.650;2023-10-13T07:08:19;9.00;;;4.47;;
16460;SDS011;8341;42.048;24.650;2023-10-13T07:10:49;5.80;;;4.35;;
16460;SDS011;8341;42.048;24.650;2023-10-13T07:13:27;7.35;;;4.20;;
16460;SDS011;8341;42.048;24.650;2023-10-13T07:15:54;6.70;;;4.28;;
16460;SDS011;8341;42.048;24.650;2023-10-13T07:18:33;7.03;;;4.50;;
16460;SDS011;8341;42.048;24.650;2023-10-13T07:21:08;5.40;;;4.00;;
16460;SDS011;8341;42.048;24.650;2023-10-13T07:23:36;8.52;;;4.55;;
16460;SDS011;8341;42.048;24.650;2023-10-13T07:26:06;6.85;;;4.28;;
16460;SDS011;8341;42.048;24.650;2023-10-13T07:28:34;6.28;;;4.65;;
16460;SDS011;8341;42.048;24.650;2023-10-13T07:31:12;8.63;;;4.28;;
16460;SDS011;8341;42.048;24.650;2023-10-13T07:33:43;8.85;;;4.55;;
16460;SDS011;8341;42.048;24.650;2023-10-13T07:36:09;4.55;;;3.90;;
16460;SDS011;8341;42.048;24.650;2023-10-13T07:38:53;8.43;;;4.20;;
16460;SDS011;8341;42.048;24.650;2023-10-13T07:41:45;6.53;;;4.35;;
16460;SDS011;8341;42.048;24.650;2023-10-13T07:44:17;4.93;;;4.05;;
16460;SDS011;8341;42.048;24.650;2023-10-13T07:46:49;7.22;;;4.60;;
16460;SDS011;8341;42.048;24.650;2023-10-13T07:49:27;6.57;;;4.50;;
16460;SDS011;8341;42.048;24.650;2023-10-13T07:52:01;6.82;;;4.00;;
16460;SDS011;8341;42.048;24.650;2023-10-13T07:54:43;8.88;;;4.35;;
16460;SDS011;8341;42.048;24.650;2023-10-13T07:57:12;6.72;;;4.30;;
16460;SDS011;8341;42.048;24.650;2023-10-13T07:59:41;6.40;;;3.90;;
16460;SDS011;8341;42.048;24.650;2023-10-13T08:02:13;5.60;;;4.43;;
16460;SDS011;8341;42.048;24.650;2023-10-13T08:05:02;4.93;;;4.03;;
16460;SDS011;8341;42.048;24.650;2023-10-13T08:07:30;7.45;;;4.22;;
16460;SDS011;8341;42.048;24.650;2023-10-13T08:09:56;4.90;;;4.07;;
16460;SDS011;8341;42.048;24.650;2023-10-13T08:12:24;6.82;;;4.10;;
16460;SDS011;8341;42.048;24.650;2023-10-13T08:14:52;6.18;;;3.92;;
16460;SDS011;8341;42.048;24.650;2023-10-13T08:17:37;7.15;;;5.05;;
16460;SDS011;8341;42.048;24.650;2023-10-13T08:20:11;9.95;;;5.38;;
16460;SDS011;8341;42.048;24.650;2023-10-13T08:22:38;9.20;;;5.75;;
16460;SDS011;8341;42.048;24.650;2023-10-13T08:25:12;16.65;;;5.30;;
16460;SDS011;8341;42.048;24.650;2023-10-13T08:27:46;10.40;;;5.18;;
16460;SDS011;8341;42.048;24.650;2023-10-13T08:30:30;15.23;;;4.78;;
16460;SDS011;8341;42.048;24.650;2023-10-13T08:33:07;10.68;;;4.28;;
16460;SDS011;8341;42.048;24.650;2023-10-13T08:35:44;10.60;;;4.93;;
16460;SDS011;8341;42.048;24.650;2023-10-13T08:38:40;7.05;;;4.15;;
16460;SDS011;8341;42.048;24.650;2023-10-13T08:41:16;11.38;;;3.90;;
16460;SDS011;8341;42.048;24.650;2023-10-13T08:43:54;10.02;;;4.38;;
16460;SDS011;8341;42.048;24.650;2023-10-13T08:46:30;7.70;;;4.10;;
16460;SDS011;8341;42.048;24.650;2023-10-13T08:49:16;4.88;;;4.20;;
16460;SDS011;8341;42.048;24.650;2023-10-13T08:51:49;8.15;;;4.18;;
16460;SDS011;8341;42.048;24.650;2023-10-13T08:54:30;9.70;;;4.82;;
16460;SDS011;8341;42.048;24.650;2023-10-13T08:57:04;6.93;;;4.30;;
16460;SDS011;8341;42.048;24.650;2023-10-13T08:59:54;9.20;;;4.32;;
16460;SDS011;8341;42.048;24.650;2023-10-13T09:02:21;7.88;;;4.55;;
16460;SDS011;8341;42.048;24.650;2023-10-13T09:05:08;4.82;;;4.32;;
16460;SDS011;8341;42.048;24.650;2023-10-13T09:07:57;6.93;;;4.35;;
16460;SDS011;8341;42.048;24.650;2023-10-13T09:10:34;10.40;;;5.22;;
16460;SDS011;8341;42.048;24.650;2023-10-13T09:13:09;12.50;;;5.38;;
16460;SDS011;8341;42.048;24.650;2023-10-13T09:15:44;12.05;;;5.05;;
16460;SDS011;8341;42.048;24.650;2023-10-13T09:18:24;6.50;;;4.90;;
16460;SDS011;8341;42.048;24.650;2023-10-13T09:21:12;9.90;;;4.82;;
16460;SDS011;8341;42.048;24.650;2023-10-13T09:24:10;9.07;;;4.72;;
16460;SDS011;8341;42.048;24.650;2023-10-13T09:26:55;7.47;;;5.10;;
16460;SDS011;8341;42.048;24.650;2023-10-13T09:29:22;10.90;;;4.68;;
16460;SDS011;8341;42.048;24.650;2023-10-13T09:31:57;10.43;;;4.68;;
16460;SDS011;8341;42.048;24.650;2023-10-13T09:34:27;9.43;;;4.35;;
16460;SDS011;8341;42.048;24.650;2023-10-13T09:36:57;8.63;;;4.28;;
16460;SDS011;8341;42.048;24.650;2023-10-13T09:39:26;6.88;;;4.30;;
16460;SDS011;8341;42.048;24.650;2023-10-13T09:42:09;8.00;;;4.32;;
16460;SDS011;8341;42.048;24.650;2023-10-13T09:44:37;5.85;;;4.13;;
16460;SDS011;8341;42.048;24.650;2023-10-13T09:47:05;4.50;;;3.70;;
16460;SDS011;8341;42.048;24.650;2023-10-13T09:49:43;10.27;;;3.92;;
16460;SDS011;8341;42.048;24.650;2023-10-13T09:52:15;7.97;;;3.88;;
16460;SDS011;8341;42.048;24.650;2023-10-13T09:54:54;9.35;;;4.50;;
16460;SDS011;8341;42.048;24.650;2023-10-13T09:57:31;8.15;;;4.45;;
16460;SDS011;8341;42.048;24.650;2023-10-13T10:00:04;9.93;;;4.57;;
16460;SDS011;8341;42.048;24.650;2023-10-13T10:02:52;11.27;;;4.22;;
16460;SDS011;8341;42.048;24.650;2023-10-13T10:05:23;9.73;;;4.40;;
16460;SDS011;8341;42.048;24.650;2023-10-13T10:07:54;5.43;;;4.28;;
16460;SDS011;8341;42.048;24.650;2023-10-13T10:10:22;7.53;;;4.20;;
16460;SDS011;8341;42.048;24.650;2023-10-13T10:13:04;7.38;;;4.40;;
16460;SDS011;8341;42.048;24.650;2023-10-13T10:15:42;5.55;;;4.32;;
16460;SDS011;8341;42.048;24.650;2023-10-13T10:18:17;8.23;;;4.40;;
16460;SDS011;8341;42.048;24.650;2023-10-13T10:20:47;8.77;;;4.80;;
16460;SDS011;8341;42.048;24.650;2023-10-13T10:23:26;7.05;;;4.05;;
16460;SDS011;8341;42.048;24.650;2023-10-13T10:26:10;6.75;;;4.47;;
16460;SDS011;8341;42.048;24.650;2023-10-13T10:28:39;8.25;;;4.35;;
16460;SDS011;8341;42.048;24.650;2023-10-13T10:31:07;7.28;;;4.43;;
16460;SDS011;8341;42.048;24.650;2023-10-13T10:33:38;6.82;;;4.43;;
16460;SDS011;8341;42.048;24.650;2023-10-13T10:36:05;8.13;;;4.20;;
16460;SDS011;8341;42.048;24.650;2023-10-13T10:38:34;7.82;;;3.88;;
16460;SDS011;8341;42.048;24.650;2023-10-13T10:41:04;6.97;;;4.28;;
16460;SDS011;8341;42.048;24.650;2023-10-13T10:43:37;11.38;;;4.20;;
16460;SDS011;8341;42.048;24.650;2023-10-13T10:46:11;7.40;;;4.05;;
16460;SDS011;8341;42.048;24.650;2023-10-13T10:48:39;8.10;;;3.88;;
16460;SDS011;8341;42.048;24.650;2023-10-13T10:51:09;5.78;;;4.13;;
16460;SDS011;8341;42.048;24.650;2023-10-13T10:53:46;7.30;;;3.97;;
16460;SDS011;8341;42.048;24.650;2023-10-13T10:56:15;8.73;;;3.92;;
16460;SDS011;8341;42.048;24.650;2023-10-13T10:58:53;8.68;;;4.30;;
16460;SDS011;8341;42.048;24.650;2023-10-13T11:01:25;7.50;;;4.00;;
16460;SDS011;8341;42.048;24.650;2023-10-13T11:03:59;8.00;;;3.83;;
16460;SDS011;8341;42.048;24.650;2023-10-13T11:06:33;7.55;;;3.65;;
16460;SDS011;8341;42.048;24.650;2023-10-13T11:09:07;6.82;;;3.97;;
16460;SDS011;8341;42.048;24.650;2023-10-13T11:11:44;8.95;;;4.25;;
16460;SDS011;8341;42.048;24.650;2023-10-13T11:14:20;4.13;;;3.58;;
16460;SDS011;8341;42.048;24.650;2023-10-13T11:16:51;8.65;;;4.30;;
16460;SDS011;8341;42.048;24.650;2023-10-13T11:19:20;7.90;;;3.67;;
16460;SDS011;8341;42.048;24.650;2023-10-13T11:21:51;9.43;;;4.03;;
16460;SDS011;8341;42.048;24.650;2023-10-13T11:24:19;7.63;;;3.78;;
16460;SDS011;8341;42.048;24.650;2023-10-13T11:26:47;6.15;;;3.78;;
16460;SDS011;8341;42.048;24.650;2023-10-13T11:29:31;6.40;;;3.90;;
16460;SDS011;8341;42.048;24.650;2023-10-13T11:31:59;8.77;;;4.25;;
16460;SDS011;8341;42.048;24.650;2023-10-13T11:34:28;5.50;;;3.78;;
16460;SDS011;8341;42.048;24.650;2023-10-13T11:37:04;5.13;;;3.80;;
16460;SDS011;8341;42.048;24.650;2023-10-13T11:39:53;8.02;;;4.00;;
16460;SDS011;8341;42.048;24.650;2023-10-13T11:42:20;5.28;;;3.63;;
16460;SDS011;8341;42.048;24.650;2023-10-13T11:44:48;9.77;;;3.90;;
16460;SDS011;8341;42.048;24.650;2023-10-13T11:47:26;8.70;;;3.90;;
16460;SDS011;8341;42.048;24.650;2023-10-13T11:50:12;5.72;;;4.13;;
16460;SDS011;8341;42.048;24.650;2023-10-13T11:52:51;4.20;;;3.80;;
16460;SDS011;8341;42.048;24.650;2023-10-13T11:55:18;5.45;;;4.10;;
16460;SDS011;8341;42.048;24.650;2023-10-13T11:57:45;7.55;;;4.43;;
16460;SDS011;8341;42.048;24.650;2023-10-13T12:00:14;10.45;;;4.38;;
16460;SDS011;8341;42.048;24.650;2023-10-13T12:02:51;7.07;;;4.25;;
16460;SDS011;8341;42.048;24.650;2023-10-13T12:05:36;10.23;;;4.22;;
16460;SDS011;8341;42.048;24.650;2023-10-13T12:08:31;8.02;;;4.18;;
16460;SDS011;8341;42.048;24.650;2023-10-13T12:11:03;6.07;;;4.03;;
16460;SDS011;8341;42.048;24.650;2023-10-13T12:13:55;9.93;;;3.90;;
16460;SDS011;8341;42.048;24.650;2023-10-13T12:16:23;9.68;;;4.53;;
16460;SDS011;8341;42.048;24.650;2023-10-13T12:18:59;13.45;;;4.60;;
16460;SDS011;8341;42.048;24.650;2023-10-13T12:21:26;6.78;;;4.25;;
16460;SDS011;8341;42.048;24.650;2023-10-13T12:23:54;7.13;;;4.10;;
16460;SDS011;8341;42.048;24.650;2023-10-13T12:26:21;11.07;;;4.65;;
16460;SDS011;8341;42.048;24.650;2023-10-13T12:28:57;5.95;;;3.92;;
16460;SDS011;8341;42.048;24.650;2023-10-13T12:31:33;5.88;;;4.20;;
16460;SDS011;8341;42.048;24.650;2023-10-13T12:34:04;6.55;;;4.13;;
16460;SDS011;8341;42.048;24.650;2023-10-13T12:36:39;7.63;;;4.18;;
16460;SDS011;8341;42.048;24.650;2023-10-13T12:39:18;6.07;;;4.10;;
16460;SDS011;8341;42.048;24.650;2023-10-13T12:42:02;6.40;;;4.00;;
16460;SDS011;8341;42.048;24.650;2023-10-13T12:44:46;5.30;;;4.07;;
16460;SDS011;8341;42.048;24.650;2023-10-13T12:47:31;9.60;;;4.38;;
16460;SDS011;8341;42.048;24.650;2023-10-13T12:50:16;7.57;;;3.72;;
16460;SDS011;8341;42.048;24.650;2023-10-13T12:52:59;9.80;;;3.90;;
16460;SDS011;8341;42.048;24.650;2023-10-13T12:55:26;5.55;;;4.00;;
16460;SDS011;8341;42.048;24.650;2023-10-13T12:57:53;7.47;;;4.18;;
16460;SDS011;8341;42.048;24.650;2023-10-13T13:00:19;9.13;;;3.67;;
16460;SDS011;8341;42.048;24.650;2023-10-13T13:02:51;8.38;;;4.15;;
16460;SDS011;8341;42.048;24.650;2023-10-13T13:05:21;7.30;;;3.72;;
16460;SDS011;8341;42.048;24.650;2023-10-13T13:07:53;11.65;;;4.80;;
16460;SDS011;8341;42.048;24.650;2023-10-13T13:10:21;8.57;;;3.60;;
16460;SDS011;8341;42.048;24.650;2023-10-13T13:13:00;7.03;;;3.75;;
16460;SDS011;8341;42.048;24.650;2023-10-13T13:15:29;8.63;;;3.70;;
16460;SDS011;8341;42.048;24.650;2023-10-13T13:17:57;8.95;;;3.50;;
16460;SDS011;8341;42.048;24.650;2023-10-13T13:20:35;13.77;;;3.90;;
16460;SDS011;8341;42.048;24.650;2023-10-13T13:23:04;9.07;;;3.35;;
16460;SDS011;8341;42.048;24.650;2023-10-13T13:25:32;6.72;;;3.85;;
16460;SDS011;8341;42.048;24.650;2023-10-13T13:27:59;6.63;;;4.50;;
16460;SDS011;8341;42.048;24.650;2023-10-13T13:30:30;5.78;;;3.35;;
16460;SDS011;8341;42.048;24.650;2023-10-13T13:33:01;3.25;;;2.95;;
16460;SDS011;8341;42.048;24.650;2023-10-13T13:35:36;8.90;;;3.30;;
16460;SDS011;8341;42.048;24.650;2023-10-13T13:38:03;4.90;;;2.58;;
16460;SDS011;8341;42.048;24.650;2023-10-13T13:40:36;7.80;;;3.38;;
16460;SDS011;8341;42.048;24.650;2023-10-13T13:43:04;6.00;;;3.25;;
16460;SDS011;8341;42.048;24.650;2023-10-13T13:45:31;7.25;;;3.03;;
16460;SDS011;8341;42.048;24.650;2023-10-13T13:48:01;8.07;;;2.78;;
16460;SDS011;8341;42.048;24.650;2023-10-13T13:50:33;8.63;;;2.92;;
16460;SDS011;8341;42.048;24.650;2023-10-13T13:53:05;5.97;;;2.78;;
16460;SDS011;8341;42.048;24.650;2023-10-13T13:55:34;7.15;;;2.90;;
16460;SDS011;8341;42.048;24.650;2023-10-13T13:58:01;7.00;;;3.22;;
16460;SDS011;8341;42.048;24.650;2023-10-13T14:00:33;4.05;;;2.63;;
16460;SDS011;8341;42.048;24.650;2023-10-13T14:03:05;8.25;;;2.58;;
16460;SDS011;8341;42.048;24.650;2023-10-13T14:05:40;5.78;;;2.83;;
16460;SDS011;8341;42.048;24.650;2023-10-13T14:08:07;7.60;;;3.85;;
16460;SDS011;8341;42.048;24.650;2023-10-13T14:10:36;5.80;;;3.60;;
16460;SDS011;8341;42.048;24.650;2023-10-13T14:13:25;13.48;;;7.25;;
16460;SDS011;8341;42.048;24.650;2023-10-13T14:16:12;9.27;;;4.13;;
16460;SDS011;8341;42.048;24.650;2023-10-13T14:18:44;7.10;;;3.78;;
16460;SDS011;8341;42.048;24.650;2023-10-13T14:21:12;12.07;;;4.32;;
16460;SDS011;8341;42.048;24.650;2023-10-13T14:23:42;8.52;;;4.05;;
16460;SDS011;8341;42.048;24.650;2023-10-13T14:26:11;6.28;;;4.20;;
16460;SDS011;8341;42.048;24.650;2023-10-13T14:28:39;7.32;;;4.38;;
16460;SDS011;8341;42.048;24.650;2023-10-13T14:31:16;5.18;;;3.88;;
16460;SDS011;8341;42.048;24.650;2023-10-13T14:33:45;7.20;;;4.72;;
16460;SDS011;8341;42.048;24.650;2023-10-13T14:36:13;7.38;;;4.57;;
16460;SDS011;8341;42.048;24.650;2023-10-13T14:38:45;7.07;;;4.55;;
16460;SDS011;8341;42.048;24.650;2023-10-13T14:41:14;10.40;;;5.20;;
16460;SDS011;8341;42.048;24.650;2023-10-13T14:43:42;8.35;;;3.90;;
16460;SDS011;8341;42.048;24.650;2023-10-13T14:46:13;9.60;;;4.22;;
16460;SDS011;8341;42.048;24.650;2023-10-13T14:48:41;8.35;;;3.97;;
16460;SDS011;8341;42.048;24.650;2023-10-13T14:51:10;5.18;;;3.78;;
16460;SDS011;8341;42.048;24.650;2023-10-13T14:53:38;8.88;;;4.22;;
16460;SDS011;8341;42.048;24.650;2023-10-13T14:56:09;8.23;;;3.33;;
16460;SDS011;8341;42.048;24.650;2023-10-13T14:58:37;7.50;;;3.92;;
16460;SDS011;8341;42.048;24.650;2023-10-13T15:01:10;6.28;;;4.00;;
16460;SDS011;8341;42.048;24.650;2023-10-13T15:03:40;7.30;;;3.78;;
16460;SDS011;8341;42.048;24.650;2023-10-13T15:06:08;5.82;;;4.00;;
16460;SDS011;8341;42.048;24.650;2023-10-13T15:08:42;4.35;;;3.65;;
16460;SDS011;8341;42.048;24.650;2023-10-13T15:11:11;6.75;;;3.42;;
16460;SDS011;8341;42.048;24.650;2023-10-13T15:13:39;7.53;;;3.67;;
16460;SDS011;8341;42.048;24.650;2023-10-13T15:16:14;4.72;;;3.40;;
16460;SDS011;8341;42.048;24.650;2023-10-13T15:18:42;4.15;;;3.40;;
16460;SDS011;8341;42.048;24.650;2023-10-13T15:21:15;5.75;;;3.22;;
16460;SDS011;8341;42.048;24.650;2023-10-13T15:23:46;6.95;;;3.53;;
16460;SDS011;8341;42.048;24.650;2023-10-13T15:26:13;11.50;;;4.20;;
16460;SDS011;8341;42.048;24.650;2023-10-13T15:28:40;16.58;;;4.35;;
16460;SDS011;8341;42.048;24.650;2023-10-13T15:31:13;6.30;;;3.55;;
16460;SDS011;8341;42.048;24.650;2023-10-13T15:33:51;4.18;;;3.15;;
16460;SDS011;8341;42.048;24.650;2023-10-13T15:36:21;5.90;;;3.47;;
16460;SDS011;8341;42.048;24.650;2023-10-13T15:38:49;7.28;;;3.42;;
16460;SDS011;8341;42.048;24.650;2023-10-13T15:41:26;5.43;;;2.85;;
16460;SDS011;8341;42.048;24.650;2023-10-13T15:43:53;4.50;;;2.88;;
16460;SDS011;8341;42.048;24.650;2023-10-13T15:46:21;5.80;;;2.95;;
16460;SDS011;8341;42.048;24.650;2023-10-13T15:48:49;4.50;;;2.70;;
16460;SDS011;8341;42.048;24.650;2023-10-13T15:51:16;7.20;;;3.00;;
16460;SDS011;8341;42.048;24.650;2023-10-13T15:53:45;4.93;;;2.45;;
16460;SDS011;8341;42.048;24.650;2023-10-13T15:56:13;7.78;;;3.15;;
16460;SDS011;8341;42.048;24.650;2023-10-13T15:58:40;8.90;;;3.53;;
16460;SDS011;8341;42.048;24.650;2023-10-13T16:01:09;6.63;;;3.65;;
16460;SDS011;8341;42.048;24.650;2023-10-13T16:03:38;5.65;;;3.20;;
16460;SDS011;8341;42.048;24.650;2023-10-13T16:06:05;5.05;;;2.80;;
16460;SDS011;8341;42.048;24.650;2023-10-13T16:08:35;3.97;;;2.65;;
16460;SDS011;8341;42.048;24.650;2023-10-13T16:11:04;7.95;;;3.05;;
16460;SDS011;8341;42.048;24.650;2023-10-13T16:13:34;7.43;;;3.30;;
16460;SDS011;8341;42.048;24.650;2023-10-13T16:16:02;9.15;;;6.38;;
16460;SDS011;8341;42.048;24.650;2023-10-13T16:18:29;6.18;;;4.57;;
16460;SDS011;8341;42.048;24.650;2023-10-13T16:20:58;7.85;;;4.22;;
16460;SDS011;8341;42.048;24.650;2023-10-13T16:23:26;5.20;;;3.17;;
16460;SDS011;8341;42.048;24.650;2023-10-13T16:25:53;4.22;;;2.80;;
16460;SDS011;8341;42.048;24.650;2023-10-13T16:28:24;4.32;;;2.90;;
16460;SDS011;8341;42.048;24.650;2023-10-13T16:30:50;7.10;;;2.97;;
16460;SDS011;8341;42.048;24.650;2023-10-13T16:33:19;3.75;;;2.58;;
16460;SDS011;8341;42.048;24.650;2023-10-13T16:35:46;16.60;;;2.85;;
16460;SDS011;8341;42.048;24.650;2023-10-13T16:38:15;7.40;;;2.65;;
16460;SDS011;8341;42.048;24.650;2023-10-13T16:40:42;2.13;;;1.83;;
16460;SDS011;8341;42.048;24.650;2023-10-13T16:43:09;17.38;;;3.00;;
16460;SDS011;8341;42.048;24.650;2023-10-13T16:45:39;17.48;;;3.00;;
16460;SDS011;8341;42.048;24.650;2023-10-13T16:48:09;10.75;;;2.70;;
16460;SDS011;8341;42.048;24.650;2023-10-13T16:50:38;4.32;;;2.17;;
16460;SDS011;8341;42.048;24.650;2023-10-13T16:53:07;5.90;;;2.10;;
16460;SDS011;8341;42.048;24.650;2023-10-13T16:55:35;2.10;;;1.73;;
16460;SDS011;8341;42.048;24.650;2023-10-13T16:58:06;3.92;;;1.83;;
16460;SDS011;8341;42.048;24.650;2023-10-13T17:00:35;11.95;;;5.70;;
16460;SDS011;8341;42.048;24.650;2023-10-13T17:03:04;4.15;;;2.20;;
16460;SDS011;8341;42.048;24.650;2023-10-13T17:05:38;14.20;;;2.35;;
16460;SDS011;8341;42.048;24.650;2023-10-13T17:08:05;8.40;;;2.13;;
16460;SDS011;8341;42.048;24.650;2023-10-13T17:10:33;4.53;;;1.90;;
16460;SDS011;8341;42.048;24.650;2023-10-13T17:13:01;3.17;;;1.83;;
16460;SDS011;8341;42.048;24.650;2023-10-13T17:15:29;4.68;;;2.00;;
16460;SDS011;8341;42.048;24.650;2023-10-13T17:17:58;3.42;;;1.88;;
16460;SDS011;8341;42.048;24.650;2023-10-13T17:20:26;4.35;;;1.77;;
16460;SDS011;8341;42.048;24.650;2023-10-13T17:22:53;7.70;;;4.97;;
16460;SDS011;8341;42.048;24.650;2023-10-13T17:25:22;3.28;;;1.85;;
16460;SDS011;8341;42.048;24.650;2023-10-13T17:27:50;4.75;;;2.58;;
16460;SDS011;8341;42.048;24.650;2023-10-13T17:30:18;3.10;;;1.63;;
16460;SDS011;8341;42.048;24.650;2023-10-13T17:32:45;3.42;;;1.63;;
16460;SDS011;8341;42.048;24.650;2023-10-13T17:35:15;4.38;;;1.92;;
16460;SDS011;8341;42.048;24.650;2023-10-13T17:37:46;4.78;;;1.40;;
16460;SDS011;8341;42.048;24.650;2023-10-13T17:40:13;3.63;;;1.42;;
16460;SDS011;8341;42.048;24.650;2023-10-13T17:42:41;4.90;;;1.63;;
16460;SDS011;8341;42.048;24.650;2023-10-13T17:45:14;6.72;;;1.60;;
16460;SDS011;8341;42.048;24.650;2023-10-13T17:47:41;7.00;;;1.95;;
16460;SDS011;8341;42.048;24.650;2023-10-13T17:50:09;3.08;;;1.52;;
16460;SDS011;8341;42.048;24.650;2023-10-13T17:52:38;5.22;;;1.85;;
16460;SDS011;8341;42.048;24.650;2023-10-13T17:55:07;6.85;;;2.20;;
16460;SDS011;8341;42.048;24.650;2023-10-13T17:57:37;4.20;;;1.48;;
16460;SDS011;8341;42.048;24.650;2023-10-13T18:00:06;3.85;;;1.65;;
16460;SDS011;8341;42.048;24.650;2023-10-13T18:02:39;3.70;;;1.55;;
16460;SDS011;8341;42.048;24.650;2023-10-13T18:05:07;7.45;;;1.83;;
16460;SDS011;8341;42.048;24.650;2023-10-13T18:07:35;4.05;;;1.90;;
16460;SDS011;8341;42.048;24.650;2023-10-13T18:10:02;6.32;;;1.77;;
16460;SDS011;8341;42.048;24.650;2023-10-13T18:12:32;7.18;;;2.15;;
16460;SDS011;8341;42.048;24.650;2023-10-13T18:15:02;4.40;;;1.73;;
16460;SDS011;8341;42.048;24.650;2023-10-13T18:17:30;3.97;;;1.52;;
16460;SDS011;8341;42.048;24.650;2023-10-13T18:19:57;3.10;;;1.73;;
16460;SDS011;8341;42.048;24.650;2023-10-13T18:22:24;5.47;;;1.50;;
16460;SDS011;8341;42.048;24.650;2023-10-13T18:24:53;3.47;;;1.48;;
16460;SDS011;8341;42.048;24.650;2023-10-13T18:27:20;4.13;;;1.90;;
16460;SDS011;8341;42.048;24.650;2023-10-13T18:29:50;4.35;;;1.75;;
16460;SDS011;8341;42.048;24.650;2023-10-13T18:32:17;2.80;;;1.33;;
16460;SDS011;8341;42.048;24.650;2023-10-13T18:34:45;4.82;;;1.70;;
16460;SDS011;8341;42.048;24.650;2023-10-13T18:37:13;3.67;;;1.55;;
16460;SDS011;8341;42.048;24.650;2023-10-13T18:39:40;3.35;;;1.35;;
16460;SDS011;8341;42.048;24.650;2023-10-13T18:42:07;3.60;;;1.45;;
16460;SDS011;8341;42.048;24.650;2023-10-13T18:44:34;3.05;;;1.50;;
16460;SDS011;8341;42.048;24.650;2023-10-13T18:47:03;5.30;;;1.70;;
16460;SDS011;8341;42.048;24.650;2023-10-13T18:49:30;2.92;;;1.50;;
16460;SDS011;8341;42.048;24.650;2023-10-13T18:51:57;3.83;;;1.50;;
16460;SDS011;8341;42.048;24.650;2023-10-13T18:54:24;2.58;;;1.60;;
16460;SDS011;8341;42.048;24.650;2023-10-13T18:56:54;3.90;;;1.77;;
16460;SDS011;8341;42.048;24.650;2023-10-13T18:59:21;5.55;;;1.60;;
16460;SDS011;8341;42.048;24.650;2023-10-13T19:01:48;3.97;;;1.50;;
16460;SDS011;8341;42.048;24.650;2023-10-13T19:04:17;3.58;;;1.85;;
16460;SDS011;8341;42.048;24.650;2023-10-13T19:06:45;5.78;;;1.80;;
16460;SDS011;8341;42.048;24.650;2023-10-13T19:09:15;5.93;;;1.83;;
16460;SDS011;8341;42.048;24.650;2023-10-13T19:11:50;3.47;;;1.33;;
16460;SDS011;8341;42.048;24.650;2023-10-13T19:14:21;4.05;;;1.10;;
16460;SDS011;8341;42.048;24.650;2023-10-13T19:16:48;2.35;;;1.40;;
16460;SDS011;8341;42.048;24.650;2023-10-13T19:19:19;2.85;;;1.35;;
16460;SDS011;8341;42.048;24.650;2023-10-13T19:21:48;6.13;;;1.83;;
16460;SDS011;8341;42.048;24.650;2023-10-13T19:24:15;3.85;;;1.50;;
16460;SDS011;8341;42.048;24.650;2023-10-13T19:26:45;3.45;;;1.48;;
16460;SDS011;8341;42.048;24.650;2023-10-13T19:29:12;3.72;;;1.73;;
16460;SDS011;8341;42.048;24.650;2023-10-13T19:31:42;5.57;;;1.65;;
16460;SDS011;8341;42.048;24.650;2023-10-13T19:34:09;3.60;;;1.42;;
16460;SDS011;8341;42.048;24.650;2023-10-13T19:36:37;2.90;;;1.50;;
16460;SDS011;8341;42.048;24.650;2023-10-13T19:39:04;3.72;;;1.58;;
16460;SDS011;8341;42.048;24.650;2023-10-13T19:41:31;5.47;;;1.50;;
16460;SDS011;8341;42.048;24.650;2023-10-13T19:43:58;2.90;;;1.58;;
16460;SDS011;8341;42.048;24.650;2023-10-13T19:46:27;4.43;;;1.73;;
16460;SDS011;8341;42.048;24.650;2023-10-13T19:48:55;3.45;;;1.65;;
16460;SDS011;8341;42.048;24.650;2023-10-13T19:51:23;4.38;;;1.50;;
16460;SDS011;8341;42.048;24.650;2023-10-13T19:53:54;6.38;;;1.77;;
16460;SDS011;8341;42.048;24.650;2023-10-13T19:56:22;4.13;;;1.50;;
16460;SDS011;8341;42.048;24.650;2023-10-13T19:58:50;4.30;;;1.50;;
16460;SDS011;8341;42.048;24.650;2023-10-13T20:01:18;4.95;;;1.60;;
16460;SDS011;8341;42.048;24.650;2023-10-13T20:03:46;6.03;;;1.30;;
16460;SDS011;8341;42.048;24.650;2023-10-13T20:06:13;3.85;;;1.92;;
16460;SDS011;8341;42.048;24.650;2023-10-13T20:08:45;3.03;;;1.48;;
16460;SDS011;8341;42.048;24.650;2023-10-13T20:11:15;3.78;;;1.40;;
16460;SDS011;8341;42.048;24.650;2023-10-13T20:13:43;2.92;;;1.40;;
16460;SDS011;8341;42.048;24.650;2023-10-13T20:16:11;5.13;;;1.63;;
16460;SDS011;8341;42.048;24.650;2023-10-13T20:18:45;3.80;;;1.58;;
16460;SDS011;8341;42.048;24.650;2023-10-13T20:21:12;5.65;;;1.75;;
16460;SDS011;8341;42.048;24.650;2023-10-13T20:23:40;3.30;;;1.80;;
16460;SDS011;8341;42.048;24.650;2023-10-13T20:26:07;4.32;;;1.63;;
16460;SDS011;8341;42.048;24.650;2023-10-13T20:28:40;3.92;;;1.42;;
16460;SDS011;8341;42.048;24.650;2023-10-13T20:31:06;3.88;;;1.52;;
16460;SDS011;8341;42.048;24.650;2023-10-13T20:33:35;4.28;;;1.85;;
16460;SDS011;8341;42.048;24.650;2023-10-13T20:36:02;3.35;;;1.70;;
16460;SDS011;8341;42.048;24.650;2023-10-13T20:38:30;3.42;;;1.75;;
16460;SDS011;8341;42.048;24.650;2023-10-13T20:40:58;6.30;;;2.22;;
16460;SDS011;8341;42.048;24.650;2023-10-13T20:43:28;3.65;;;1.67;;
16460;SDS011;8341;42.048;24.650;2023-10-13T20:45:57;4.72;;;1.70;;
16460;SDS011;8341;42.048;24.650;2023-10-13T20:48:26;4.75;;;1.50;;
16460;SDS011;8341;42.048;24.650;2023-10-13T20:50:57;2.60;;;1.48;;
16460;SDS011;8341;42.048;24.650;2023-10-13T20:53:24;5.03;;;1.73;;
16460;SDS011;8341;42.048;24.650;2023-10-13T20:55:59;2.97;;;1.70;;
16460;SDS011;8341;42.048;24.650;2023-10-13T20:58:29;6.63;;;2.20;;